Flight Track Log - Related Links

Times and Time Zones

All times are in EDT time to prevent confusion due to time zone crossing. See the N801BB flight status page for this flight to view local times or setup timezone preferences in your user account.

Time Position Orientation Groundspeed Altitude Reporting Facility
EDT Latitude Longitude Course Direction KTS MPH feet Rate Location/Type
Wed 08:29:35 AM 27.9000 -82.6833 154° Southeast 157 181 500  Level Tampa TRACON
Wed 08:30:35 AM 27.8500 -82.7000 196° South 177 204 2,900 2,333 Climbing Tampa TRACON
Wed 08:31:41 AM 27.7833 -82.6833 168° South 202 232 5,400 2,123 Climbing Tampa TRACON
Wed 08:34:07 AM 27.6597 -82.6383 162° South 210 242 10,400 2,000 Climbing Miami Center
Wed 08:35:00 AM 27.6605 -82.1820 154° Southeast  Level Estimated
Wed 08:35:08 AM 27.6022 -82.6528 193° South 221 254 12,300  Level Miami Center
Wed 08:36:10 AM 27.5411 -82.6469 175° South 229 264 14,100 1,659 Climbing Miami Center
Wed 08:37:11 AM 27.4817 -82.6158 155° Southeast 236 272 15,700 1,756 Climbing Miami Center
Wed 08:38:13 AM 27.4128 -82.5561 142° Southeast 261 300 17,700 1,707 Climbing Miami Center
Wed 08:39:14 AM 27.3536 -82.5033 142° Southeast 260 299 19,200 1,463 Climbing Miami Center
Wed 08:40:16 AM 27.2917 -82.4472 141° Southeast 269 310 20,700 1,317 Climbing Miami Center
Wed 08:41:17 AM 27.2392 -82.4000 141° Southeast 273 314 21,900 1,377 Climbing Miami Center
Wed 08:42:18 AM 27.1772 -82.3453 142° Southeast 279 321 23,500 1,512 Climbing Miami Center
Wed 08:43:20 AM 27.1244 -82.2589 124° Southeast 293 337 25,000 1,366 Climbing Miami Center
Wed 08:44:21 AM 27.0886 -82.1728 115° Southeast 292 336 26,300 1,171 Climbing Miami Center
Wed 08:45:23 AM 27.0517 -82.0917 117° Southeast 297 342 27,400 1,024 Climbing Miami Center
Wed 08:46:24 AM 27.0150 -82.0011 114° Southeast 303 349 28,400 780 Climbing Miami Center
Wed 08:47:26 AM 26.9767 -81.9172 117° Southeast 309 356 29,000 293 Climbing Miami Center
Wed 08:48:27 AM 26.9367 -81.8194 115° Southeast 345 397 29,000  Level Miami Center
Wed 08:49:29 AM 26.8894 -81.7139 117° Southeast 372 428 29,000  Level Miami Center
Wed 08:50:30 AM 26.8339 -81.5928 117° Southeast 388 447 29,000  Level Miami Center
Wed 08:51:32 AM 26.7642 -81.4922 128° Southeast 392 451 29,000  Level Miami Center
Wed 08:52:33 AM 26.7003 -81.3967 127° Southeast 398 458 29,000  Level Miami Center
Wed 08:53:35 AM 26.6314 -81.2933 127° Southeast 397 457 29,000  Level Miami Center
Wed 08:54:36 AM 26.5617 -81.1886 127° Southeast 398 458 29,000  Level Miami Center
Wed 08:55:37 AM 26.5028 -81.0775 121° Southeast 400 460 29,000  Level Miami Center
Wed 08:56:39 AM 26.4583 -80.9581 113° Southeast 403 464 29,000  Level Miami Center
Wed 08:57:40 AM 26.4111 -80.8456 115° Southeast 402 463 29,000  Level Miami Center
Wed 08:58:42 AM 26.3681 -80.7333 113° Southeast 397 457 29,000  Level Miami Center
Wed 08:59:43 AM 26.3175 -80.6136 115° Southeast 397 457 29,000  Level Miami Center
Wed 09:00:45 AM 26.2731 -80.5000 114° Southeast 398 458 29,000  Level Miami Center
Wed 09:01:46 AM 26.2317 -80.4031 115° Southeast 396 456 29,000  Level Miami Center
Wed 09:02:48 AM 26.1875 -80.2906 114° Southeast 396 456 29,000  Level Miami Center
Wed 09:03:49 AM 26.1400 -80.1797 115° Southeast 395 455 29,000  Level Miami Center
Wed 09:04:51 AM 26.0958 -80.0647 113° Southeast 403 464 29,000  Level Miami Center
Wed 09:05:52 AM 26.0397 -79.9319 115° Southeast 394 453 29,000  Level Miami Center
Wed 09:06:54 AM 25.9928 -79.8211 115° Southeast 395 455 29,000 -49 Level Miami Center
Wed 09:07:55 AM 25.9475 -79.7094 114° Southeast 396 456 28,900 -738 Descending Miami Center
Wed 09:08:56 AM 25.8983 -79.5939 115° Southeast 418 481 27,500 -1,317 Descending Miami Center
Wed 09:09:58 AM 25.8503 -79.4772 115° Southeast 417 480 26,200 -1,220 Descending Miami Center
Wed 09:10:59 AM 25.8011 -79.3617 115° Southeast 413 475 25,000 -1,366 Descending Miami Center
Wed 09:12:01 AM 25.7544 -79.2475 114° Southeast 408 470 23,400 -1,561 Descending Miami Center
Wed 09:13:02 AM 25.7047 -79.1369 117° Southeast 406 467 21,800 -1,463 Descending Miami Center
Wed 09:14:04 AM 25.6600 -79.0269 114° Southeast 395 455 20,400 -1,366 Descending Miami Center
Wed 09:15:05 AM 25.6167 -78.9008 111° Southeast 381 438 19,000 -1,268 Descending Miami Center
Wed 09:16:07 AM 25.6031 -78.7842 97° East 347 399 17,800 -1,366 Descending Miami Center
Wed 09:17:08 AM 25.5814 -78.6781 103° East 349 402 16,200 -1,770 Descending Miami Center
Wed 09:18:09 AM 25.5622 -78.5725 101° East 349 402 14,200 -1,805 Descending Miami Center
Wed 09:19:11 AM 25.5403 -78.4700 103° East 346 398 12,500 -1,756 Descending Miami Center
Wed 09:20:12 AM 25.5217 -78.3717 102° East 330 380 10,600 -1,869 Descending Miami Center

Login

Don't have an account? Register now (free) for customized features, flight alerts, and more!